createdAt,value
2022-09-11T00:00:03.651Z,92.17
2022-09-11T00:01:17.117Z,92.94
2022-09-11T00:02:19.327Z,92.59
2022-09-11T00:03:24.646Z,92.94
2022-09-11T00:04:27.583Z,93.00
2022-09-11T00:05:31.283Z,92.89
2022-09-11T00:06:34.670Z,93.04
2022-09-11T00:07:41.706Z,92.73
2022-09-11T00:08:48.662Z,92.88
2022-09-11T00:09:50.949Z,93.03
2022-09-11T00:10:57.243Z,92.86
2022-09-11T00:12:01.959Z,92.96
2022-09-11T00:13:07.507Z,92.91
2022-09-11T00:14:15.171Z,93.38
2022-09-11T00:15:20.240Z,93.91
2022-09-11T00:16:29.140Z,93.93
2022-09-11T00:17:32.264Z,93.56
2022-09-11T00:18:37.183Z,93.75
2022-09-11T00:19:42.900Z,93.33
2022-09-11T00:20:51.234Z,93.60
2022-09-11T00:21:57.829Z,93.87
2022-09-11T00:23:05.272Z,93.92
2022-09-11T00:24:14.044Z,93.87
2022-09-11T00:25:16.613Z,93.88
2022-09-11T00:26:20.952Z,94.22
2022-09-11T00:27:22.991Z,94.14
2022-09-11T00:28:26.059Z,94.25
2022-09-11T00:29:32.791Z,94.38
2022-09-11T00:30:36.854Z,94.20
2022-09-11T00:31:44.091Z,94.16
2022-09-11T00:32:50.151Z,94.27
2022-09-11T00:33:53.147Z,94.67
2022-09-11T00:34:55.714Z,94.81
2022-09-11T00:36:08.319Z,94.68
2022-09-11T00:37:11.447Z,94.87
2022-09-11T00:38:17.257Z,94.85
2022-09-11T00:39:24.245Z,95.76
2022-09-11T00:40:27.752Z,96.49
2022-09-11T00:41:36.567Z,96.04
2022-09-11T00:42:38.683Z,95.53
2022-09-11T00:43:55.622Z,94.88
2022-09-11T00:45:04.481Z,94.67
2022-09-11T00:46:07.902Z,95.30
2022-09-11T00:47:13.351Z,95.16
2022-09-11T00:48:20.496Z,95.25
2022-09-11T00:49:42.483Z,95.28
2022-09-11T00:50:48.743Z,95.69
2022-09-11T00:51:59.762Z,95.78
2022-09-11T00:53:11.663Z,95.53
2022-09-11T00:54:22.628Z,95.31
2022-09-11T00:55:29.320Z,96.09
2022-09-11T00:56:36.475Z,95.93
2022-09-11T00:58:26.223Z,96.22
2022-09-11T00:59:31.407Z,96.33
2022-09-11T01:00:35.570Z,95.87
2022-09-11T01:01:37.671Z,96.03
2022-09-11T01:02:43.192Z,96.35
2022-09-11T01:03:47.511Z,96.15
2022-09-11T01:04:51.299Z,96.07
2022-09-11T01:05:54.910Z,96.75
2022-09-11T01:07:08.128Z,96.91
2022-09-11T01:08:10.799Z,96.96
2022-09-11T01:09:16.207Z,97.23
2022-09-11T01:10:19.387Z,97.54
2022-09-11T01:11:41.932Z,97.04
2022-09-11T01:13:23.239Z,97.07
2022-09-11T01:14:32.453Z,97.34
2022-09-11T01:15:54.017Z,97.53
2022-09-11T01:17:26.259Z,97.44
2022-09-11T01:18:43.076Z,97.25
2022-09-11T01:20:06.569Z,96.74
2022-09-11T01:21:35.811Z,96.91
2022-09-11T01:22:42.482Z,96.61
2022-09-11T01:24:09.572Z,97.01
2022-09-11T01:25:38.294Z,97.55
2022-09-11T01:27:05.036Z,97.45
2022-09-11T01:28:15.950Z,97.48
2022-09-11T01:29:25.208Z,97.42
2022-09-11T01:30:36.111Z,97.34
2022-09-11T01:31:49.596Z,97.75
2022-09-11T01:33:25.246Z,97.14
2022-09-11T01:34:45.620Z,97.14
2022-09-11T01:35:56.520Z,97.29
2022-09-11T01:37:08.471Z,97.02
2022-09-11T01:38:14.947Z,97.14
2022-09-11T01:39:22.632Z,97.36
2022-09-11T01:40:31.672Z,98.01
2022-09-11T01:42:02.848Z,98.41
2022-09-11T01:44:04.540Z,98.65
2022-09-11T01:45:07.889Z,98.57
2022-09-11T01:46:18.548Z,98.67
2022-09-11T01:47:24.402Z,98.83
2022-09-11T01:48:39.165Z,99.09
2022-09-11T01:49:51.806Z,99.78
2022-09-11T01:51:01.138Z,100.00
2022-09-11T01:52:09.330Z,100.00
2022-09-11T01:53:17.382Z,100.00
2022-09-11T01:54:26.285Z,100.00
2022-09-11T01:55:42.987Z,100.00
2022-09-11T01:56:52.681Z,100.00
2022-09-11T01:58:26.486Z,100.00
2022-09-11T01:59:45.929Z,100.00
2022-09-11T02:00:54.180Z,100.00
2022-09-11T02:02:09.973Z,100.00
2022-09-11T02:03:25.378Z,100.00
2022-09-11T02:04:51.911Z,100.00
2022-09-11T02:06:03.684Z,100.00
2022-09-11T02:07:28.360Z,100.00
2022-09-11T02:08:54.759Z,100.00
2022-09-11T02:10:15.705Z,100.00
2022-09-11T02:11:20.764Z,100.00
2022-09-11T02:12:31.280Z,100.00
2022-09-11T02:14:06.716Z,100.00
2022-09-11T02:15:20.356Z,100.00
2022-09-11T02:16:32.873Z,100.00
2022-09-11T02:17:46.644Z,100.00
2022-09-11T02:19:03.791Z,100.00
2022-09-11T02:20:09.323Z,100.00
2022-09-11T02:21:12.026Z,100.00
2022-09-11T02:22:18.731Z,100.00
2022-09-11T02:23:23.565Z,100.00
2022-09-11T02:24:30.093Z,100.00
2022-09-11T02:25:36.147Z,100.00
2022-09-11T02:26:48.539Z,100.00
2022-09-11T02:29:08.626Z,100.00
2022-09-11T02:30:11.705Z,100.00
2022-09-11T02:31:14.753Z,100.00
2022-09-11T02:32:19.529Z,100.00
2022-09-11T02:33:38.875Z,100.00
2022-09-11T02:34:45.531Z,100.00
2022-09-11T02:35:53.266Z,100.00
2022-09-11T02:37:20.661Z,100.00
2022-09-11T02:38:42.890Z,100.00
2022-09-11T02:39:48.747Z,100.00
2022-09-11T02:41:10.654Z,100.00
2022-09-11T02:42:24.696Z,100.00
2022-09-11T02:44:10.080Z,100.00
2022-09-11T02:45:20.106Z,100.00
2022-09-11T02:46:32.543Z,100.00
2022-09-11T02:47:57.416Z,100.00
2022-09-11T02:49:17.149Z,100.00
2022-09-11T02:50:46.698Z,100.00
2022-09-11T02:52:11.820Z,100.00
2022-09-11T02:53:49.685Z,100.00
2022-09-11T02:55:11.820Z,100.00
2022-09-11T02:56:40.721Z,100.00
2022-09-11T02:57:51.831Z,100.00
2022-09-11T02:58:57.243Z,100.00
2022-09-11T03:00:04.079Z,100.00
2022-09-11T03:01:10.498Z,100.00
2022-09-11T03:02:18.415Z,100.00
2022-09-11T03:03:24.352Z,100.00
2022-09-11T03:04:35.679Z,100.00
2022-09-11T03:05:40.374Z,100.00
2022-09-11T03:06:43.311Z,100.00
2022-09-11T03:07:45.544Z,100.00
2022-09-11T03:08:49.166Z,100.00
2022-09-11T03:09:53.004Z,100.00
2022-09-11T03:10:57.884Z,100.00
2022-09-11T03:12:02.334Z,100.00
2022-09-11T03:13:14.992Z,100.00
2022-09-11T03:14:21.708Z,100.00
2022-09-11T03:15:25.070Z,99.94
2022-09-11T03:16:28.871Z,100.00
2022-09-11T03:17:31.620Z,99.89
2022-09-11T03:18:34.353Z,99.92
2022-09-11T03:19:36.433Z,100.00
2022-09-11T03:20:40.307Z,99.92
2022-09-11T03:21:44.188Z,99.81
2022-09-11T03:22:46.254Z,99.53
2022-09-11T03:23:49.725Z,99.40
2022-09-11T03:24:52.270Z,99.37
2022-09-11T03:25:59.020Z,98.85
2022-09-11T03:27:01.471Z,98.83
2022-09-11T03:28:05.375Z,98.48
2022-09-11T03:29:09.439Z,98.31
2022-09-11T03:30:12.059Z,98.28
2022-09-11T03:31:15.582Z,98.64
2022-09-11T03:32:17.715Z,98.04
2022-09-11T03:33:19.970Z,97.90
2022-09-11T03:34:28.070Z,97.47
2022-09-11T03:35:30.037Z,97.48
2022-09-11T03:36:34.746Z,97.70
2022-09-11T03:37:38.844Z,97.70
2022-09-11T03:38:45.575Z,97.96
2022-09-11T03:39:51.387Z,98.04
2022-09-11T03:40:56.742Z,98.13
2022-09-11T03:41:58.918Z,98.11
2022-09-11T03:43:02.941Z,98.14
2022-09-11T03:44:05.702Z,98.29
2022-09-11T03:45:10.058Z,97.97
2022-09-11T03:46:12.000Z,97.66
2022-09-11T03:47:14.811Z,97.19
2022-09-11T03:48:16.880Z,97.20
2022-09-11T03:49:20.851Z,96.91
2022-09-11T03:50:24.871Z,97.03
2022-09-11T03:51:27.287Z,97.34
2022-09-11T03:52:31.277Z,97.26
2022-09-11T03:53:35.031Z,96.91
2022-09-11T03:54:39.906Z,96.56
2022-09-11T03:55:45.627Z,96.89
2022-09-11T03:56:47.671Z,96.76
2022-09-11T03:57:54.850Z,96.28
2022-09-11T03:59:03.015Z,95.90
2022-09-11T04:00:07.873Z,96.13
2022-09-11T04:01:23.333Z,96.14
2022-09-11T04:02:31.434Z,95.93
2022-09-11T04:03:35.010Z,95.46
2022-09-11T04:04:38.297Z,94.62
2022-09-11T04:05:44.593Z,91.40
2022-09-11T04:06:46.893Z,86.61
2022-09-11T04:07:49.122Z,84.25
2022-09-11T04:08:56.157Z,81.91
2022-09-11T04:09:59.860Z,78.13
2022-09-11T04:11:08.259Z,75.84
2022-09-11T04:12:12.979Z,72.94
2022-09-11T04:13:16.859Z,69.69
2022-09-11T04:14:19.509Z,66.96
2022-09-11T04:15:25.209Z,65.05
2022-09-11T04:16:28.083Z,63.78
2022-09-11T04:17:31.043Z,60.82
2022-09-11T04:18:37.431Z,57.74
2022-09-11T04:19:41.192Z,57.76
2022-09-11T04:20:44.759Z,56.85
2022-09-11T04:21:48.469Z,56.32
2022-09-11T04:22:54.455Z,55.19
2022-09-11T04:24:00.058Z,53.65
2022-09-11T04:25:07.124Z,51.43
2022-09-11T04:26:21.498Z,50.68
2022-09-11T04:27:28.921Z,50.86
2022-09-11T04:28:33.168Z,49.37
2022-09-11T04:29:35.249Z,48.49
2022-09-11T04:30:39.878Z,46.27
2022-09-11T04:31:43.531Z,46.41
2022-09-11T04:32:50.527Z,44.89
2022-09-11T04:33:57.378Z,43.43
2022-09-11T04:35:02.810Z,42.65
2022-09-11T04:36:17.628Z,42.47
2022-09-11T04:37:20.464Z,41.15
2022-09-11T04:38:24.072Z,40.68
2022-09-11T04:39:28.030Z,40.65
2022-09-11T04:40:30.040Z,39.65
2022-09-11T04:41:32.393Z,39.05
2022-09-11T04:42:36.567Z,37.85
2022-09-11T04:43:40.508Z,39.79
2022-09-11T04:44:44.185Z,39.44
2022-09-11T04:45:46.393Z,40.36
2022-09-11T04:46:48.748Z,38.87
2022-09-11T04:47:53.113Z,38.74
2022-09-11T04:48:59.433Z,38.78
2022-09-11T04:50:02.659Z,38.57
2022-09-11T04:51:08.041Z,38.61
2022-09-11T04:52:10.557Z,38.80
2022-09-11T04:53:13.982Z,38.99
2022-09-11T04:54:21.378Z,39.28
2022-09-11T04:55:23.955Z,38.77
2022-09-11T04:56:31.566Z,39.33
2022-09-11T04:57:34.012Z,37.83
2022-09-11T04:58:38.233Z,38.26
2022-09-11T04:59:40.195Z,38.25
2022-09-11T05:00:47.765Z,37.78
2022-09-11T05:01:50.425Z,37.44
2022-09-11T05:02:54.984Z,36.94
2022-09-11T05:03:57.563Z,37.73
2022-09-11T05:05:03.020Z,36.71
2022-09-11T05:06:08.806Z,38.21
2022-09-11T05:07:13.763Z,36.67
2022-09-11T05:08:19.129Z,36.69
2022-09-11T05:09:23.073Z,37.76
2022-09-11T05:10:27.413Z,36.41
2022-09-11T05:11:30.400Z,36.16
2022-09-11T05:12:32.621Z,35.15
2022-09-11T05:13:36.609Z,35.03
2022-09-11T05:14:39.751Z,34.12
2022-09-11T05:15:41.779Z,32.34
2022-09-11T05:16:45.143Z,32.48
2022-09-11T05:17:48.622Z,32.45
2022-09-11T05:18:54.246Z,30.66
2022-09-11T05:19:59.070Z,31.87
2022-09-11T05:21:06.486Z,30.34
2022-09-11T05:22:09.177Z,30.35
2022-09-11T05:23:15.066Z,29.59
2022-09-11T05:24:17.652Z,29.67
2022-09-11T05:25:19.740Z,30.21
2022-09-11T05:26:27.125Z,30.04
2022-09-11T05:27:30.199Z,30.71
2022-09-11T05:28:33.796Z,30.81
2022-09-11T05:29:37.124Z,30.17
2022-09-11T05:30:44.989Z,30.11
2022-09-11T05:31:47.950Z,29.11
2022-09-11T05:32:56.390Z,28.79
2022-09-11T05:34:02.171Z,28.27
2022-09-11T05:35:05.458Z,27.99
2022-09-11T05:36:07.849Z,27.75
2022-09-11T05:37:09.979Z,28.08
2022-09-11T05:38:18.804Z,28.88
2022-09-11T05:39:20.903Z,27.59
2022-09-11T05:40:23.389Z,26.46
2022-09-11T05:41:33.437Z,27.36
2022-09-11T05:42:35.470Z,26.34
2022-09-11T05:43:38.830Z,25.77
2022-09-11T05:44:40.907Z,25.97
2022-09-11T05:45:44.375Z,26.41
2022-09-11T05:46:47.201Z,26.41
2022-09-11T05:47:51.381Z,26.62
2022-09-11T05:48:56.231Z,26.55
2022-09-11T05:49:58.352Z,25.93
2022-09-11T05:51:07.161Z,26.04
2022-09-11T05:52:10.585Z,26.36
2022-09-11T05:53:12.664Z,25.97
2022-09-11T05:54:15.343Z,26.11
2022-09-11T05:55:17.378Z,26.05
2022-09-11T05:56:22.625Z,25.96
2022-09-11T05:57:26.564Z,26.87
2022-09-11T05:58:32.566Z,26.39
2022-09-11T05:59:34.888Z,25.86
2022-09-11T06:00:38.385Z,25.77
2022-09-11T06:01:40.647Z,25.72
2022-09-11T06:02:51.061Z,24.72
2022-09-11T06:03:56.267Z,25.47
2022-09-11T06:05:03.116Z,25.77
2022-09-11T06:06:09.628Z,26.78
2022-09-11T06:07:12.716Z,25.95
2022-09-11T06:08:19.728Z,26.30
2022-09-11T06:09:21.929Z,26.39
2022-09-11T06:10:24.295Z,26.14
2022-09-11T06:11:27.112Z,26.25
2022-09-11T06:12:29.490Z,26.61
2022-09-11T06:13:35.913Z,26.73
2022-09-11T06:14:38.279Z,25.97
2022-09-11T06:15:47.091Z,26.65
2022-09-11T06:16:50.159Z,28.09
2022-09-11T06:17:52.254Z,27.51
2022-09-11T06:18:54.399Z,28.05
2022-09-11T06:19:57.223Z,28.31
2022-09-11T06:21:07.341Z,28.16
2022-09-11T06:22:16.326Z,30.71
2022-09-11T06:23:19.842Z,30.09
2022-09-11T06:24:21.890Z,29.49
2022-09-11T06:25:25.438Z,31.31
2022-09-11T06:26:29.583Z,30.32
2022-09-11T06:27:32.405Z,30.31
2022-09-11T06:28:36.011Z,29.60
2022-09-11T06:29:38.487Z,28.63
2022-09-11T06:30:42.173Z,29.70
2022-09-11T06:31:46.109Z,29.60
2022-09-11T06:32:49.195Z,30.64
2022-09-11T06:33:51.745Z,30.33
2022-09-11T06:34:54.680Z,30.14
2022-09-11T06:36:00.943Z,29.95
2022-09-11T06:37:03.238Z,30.65
2022-09-11T06:38:06.705Z,30.70
2022-09-11T06:39:09.056Z,31.34
2022-09-11T06:40:13.423Z,31.65
2022-09-11T06:41:16.897Z,32.66
2022-09-11T06:42:19.457Z,31.48
2022-09-11T06:43:24.652Z,31.25
2022-09-11T06:44:27.565Z,32.27
2022-09-11T06:45:33.928Z,31.93
2022-09-11T06:46:36.270Z,32.42
2022-09-11T06:47:38.925Z,32.18
2022-09-11T06:48:51.240Z,32.60
2022-09-11T06:49:59.302Z,31.63
2022-09-11T06:51:28.405Z,31.38
2022-09-11T06:52:35.558Z,31.55
2022-09-11T06:54:01.131Z,34.42
2022-09-11T06:55:13.551Z,34.85
2022-09-11T06:56:22.428Z,34.79
2022-09-11T06:57:25.631Z,35.78
2022-09-11T06:58:29.473Z,35.75
2022-09-11T06:59:32.336Z,35.51
2022-09-11T07:00:36.799Z,35.51
2022-09-11T07:01:39.862Z,34.99
2022-09-11T07:02:42.610Z,35.21
2022-09-11T07:03:48.858Z,34.28
2022-09-11T07:04:53.389Z,34.53
2022-09-11T07:05:58.031Z,34.27
2022-09-11T07:07:00.097Z,33.44
2022-09-11T07:08:03.333Z,32.53
2022-09-11T07:09:11.945Z,32.46
2022-09-11T07:10:24.224Z,31.89
2022-09-11T07:11:34.548Z,32.02
2022-09-11T07:12:38.971Z,31.86
2022-09-11T07:13:42.089Z,32.24
2022-09-11T07:14:44.234Z,30.79
2022-09-11T07:16:03.795Z,30.93
2022-09-11T07:17:08.862Z,30.95
2022-09-11T07:18:11.593Z,30.55
2022-09-11T07:19:13.838Z,30.46
2022-09-11T07:20:17.747Z,30.38
2022-09-11T07:21:23.186Z,29.37
2022-09-11T07:22:29.815Z,29.64
2022-09-11T07:23:31.975Z,29.65
2022-09-11T07:24:34.155Z,29.48
2022-09-11T07:25:40.822Z,29.14
2022-09-11T07:26:43.113Z,29.58
2022-09-11T07:28:04.700Z,29.60
2022-09-11T07:29:06.773Z,29.79
2022-09-11T07:30:11.944Z,29.77
2022-09-11T07:31:20.910Z,30.10
2022-09-11T07:32:27.194Z,29.30
2022-09-11T07:33:31.344Z,28.59
2022-09-11T07:34:38.336Z,28.16
2022-09-11T07:35:43.724Z,28.43
2022-09-11T07:36:51.848Z,27.65
2022-09-11T07:37:58.682Z,28.64
2022-09-11T07:39:03.667Z,28.88
2022-09-11T07:40:32.406Z,29.77
2022-09-11T07:41:36.097Z,29.14
2022-09-11T07:42:44.608Z,28.60
2022-09-11T07:43:48.385Z,29.19
2022-09-11T07:44:50.883Z,29.61
2022-09-11T07:45:54.093Z,29.71
2022-09-11T07:46:56.101Z,30.91
2022-09-11T07:48:00.376Z,30.29
2022-09-11T07:49:03.120Z,30.48
2022-09-11T07:50:06.409Z,30.04
2022-09-11T07:51:14.068Z,29.54
2022-09-11T07:52:18.627Z,28.86
2022-09-11T07:53:26.373Z,28.86
2022-09-11T07:54:29.243Z,29.25
2022-09-11T07:55:34.808Z,29.35
2022-09-11T07:56:38.584Z,30.08
2022-09-11T07:57:42.720Z,30.56
2022-09-11T07:58:46.151Z,30.54
2022-09-11T07:59:48.320Z,30.45
2022-09-11T08:00:58.335Z,30.89
2022-09-11T08:02:00.540Z,31.19
2022-09-11T08:03:04.376Z,30.76
2022-09-11T08:04:12.334Z,30.69
2022-09-11T08:05:15.728Z,31.58
2022-09-11T08:06:22.344Z,31.85
2022-09-11T08:07:26.382Z,31.64
2022-09-11T08:08:29.917Z,31.05
2022-09-11T08:09:33.308Z,31.70
2022-09-11T08:10:41.051Z,32.33
2022-09-11T08:11:48.965Z,32.69
2022-09-11T08:12:56.800Z,33.54
2022-09-11T08:14:01.501Z,33.31
2022-09-11T08:15:03.848Z,32.84
2022-09-11T08:16:06.603Z,32.29
2022-09-11T08:17:09.035Z,32.76
2022-09-11T08:18:12.990Z,32.96
2022-09-11T08:19:21.763Z,32.84
2022-09-11T08:20:28.876Z,32.63
2022-09-11T08:21:31.194Z,32.17
2022-09-11T08:22:33.648Z,31.75
2022-09-11T08:23:38.538Z,31.14
2022-09-11T08:24:41.517Z,31.45
2022-09-11T08:25:45.361Z,30.88
2022-09-11T08:26:49.287Z,31.40
2022-09-11T08:27:53.329Z,30.97
2022-09-11T08:29:00.247Z,30.99
2022-09-11T08:30:06.186Z,30.96
2022-09-11T08:31:08.443Z,30.65
2022-09-11T08:32:10.952Z,30.11
2022-09-11T08:33:14.276Z,30.34
2022-09-11T08:34:17.414Z,30.58
2022-09-11T08:35:20.523Z,31.30
2022-09-11T08:36:23.883Z,31.96
2022-09-11T08:37:27.404Z,33.14
2022-09-11T08:38:30.277Z,33.38
2022-09-11T08:39:32.495Z,33.83
2022-09-11T08:40:39.855Z,34.68
2022-09-11T08:41:53.691Z,34.84
2022-09-11T08:43:02.525Z,34.79
2022-09-11T08:44:27.346Z,35.69
2022-09-11T08:45:38.442Z,34.81
2022-09-11T08:46:48.562Z,33.87
2022-09-11T08:47:57.475Z,34.60
2022-09-11T08:49:30.530Z,35.68
2022-09-11T08:50:41.648Z,35.02
2022-09-11T08:51:49.055Z,35.10
2022-09-11T08:52:55.550Z,35.10
2022-09-11T08:54:02.566Z,35.22
2022-09-11T08:55:06.712Z,34.87
2022-09-11T08:56:15.651Z,34.93
2022-09-11T08:57:41.022Z,34.80
2022-09-11T08:58:58.201Z,34.25
2022-09-11T09:00:07.689Z,34.64
2022-09-11T09:01:54.509Z,34.03
2022-09-11T09:03:09.186Z,34.44
2022-09-11T09:04:35.816Z,33.91
2022-09-11T09:06:08.791Z,33.86
2022-09-11T09:08:08.922Z,33.12
2022-09-11T09:09:13.719Z,33.33
2022-09-11T09:10:47.535Z,32.92
2022-09-11T09:12:21.041Z,32.62
2022-09-11T09:13:42.823Z,32.57
2022-09-11T09:15:00.049Z,32.84
2022-09-11T09:16:30.046Z,33.29
2022-09-11T09:17:43.527Z,32.95
2022-09-11T09:18:51.032Z,32.80
2022-09-11T09:20:06.259Z,32.33
2022-09-11T09:21:20.423Z,33.13
2022-09-11T09:22:54.853Z,32.87
2022-09-11T09:24:03.240Z,32.91
2022-09-11T09:25:11.534Z,33.18
2022-09-11T09:26:17.747Z,33.38
2022-09-11T09:27:30.502Z,33.62
2022-09-11T09:29:00.963Z,33.82
2022-09-11T09:30:07.626Z,34.02
2022-09-11T09:31:15.769Z,34.00
2022-09-11T09:32:30.011Z,33.86
2022-09-11T09:33:38.493Z,33.76
2022-09-11T09:34:46.006Z,33.92
2022-09-11T09:35:48.770Z,34.33
2022-09-11T09:37:18.827Z,33.53
2022-09-11T09:38:26.925Z,33.31
2022-09-11T09:39:32.263Z,34.03
2022-09-11T09:40:58.482Z,34.04
2022-09-11T09:42:08.637Z,34.48
2022-09-11T09:43:41.232Z,34.62
2022-09-11T09:45:21.557Z,34.24
2022-09-11T09:46:35.584Z,34.89
2022-09-11T09:47:44.790Z,34.77
2022-09-11T09:48:46.611Z,35.02
2022-09-11T09:49:48.964Z,35.56
2022-09-11T09:50:51.898Z,35.67
2022-09-11T09:52:04.654Z,35.44
2022-09-11T09:53:33.279Z,35.99
2022-09-11T09:54:36.654Z,35.88
2022-09-11T09:55:40.587Z,36.06
2022-09-11T09:56:49.526Z,35.74
2022-09-11T09:57:51.466Z,36.22
2022-09-11T09:59:12.088Z,36.30
2022-09-11T10:00:19.978Z,36.13
2022-09-11T10:01:40.230Z,36.65
2022-09-11T10:02:49.330Z,36.74
2022-09-11T10:04:25.440Z,36.55
2022-09-11T10:05:34.964Z,36.58
2022-09-11T10:06:37.324Z,36.49
2022-09-11T10:07:57.308Z,36.55
2022-09-11T10:09:03.288Z,36.65
2022-09-11T10:10:06.171Z,36.24
2022-09-11T10:11:12.433Z,36.31
2022-09-11T10:12:24.502Z,36.73
2022-09-11T10:13:29.427Z,36.77
2022-09-11T10:14:51.071Z,36.80
2022-09-11T10:16:18.397Z,37.15
2022-09-11T10:17:23.008Z,36.91
2022-09-11T10:18:42.867Z,37.06
2022-09-11T10:19:45.210Z,37.01
2022-09-11T10:20:47.539Z,36.93
2022-09-11T10:21:49.546Z,37.05
2022-09-11T10:22:53.835Z,37.09
2022-09-11T10:24:01.152Z,36.96
2022-09-11T10:25:16.450Z,37.25
2022-09-11T10:26:29.926Z,37.42
2022-09-11T10:27:43.629Z,37.34
2022-09-11T10:28:47.009Z,36.93
2022-09-11T10:29:50.956Z,36.96
2022-09-11T10:30:55.968Z,36.62
2022-09-11T10:32:02.565Z,37.23
2022-09-11T10:33:16.466Z,36.73
2022-09-11T10:34:24.863Z,36.73
2022-09-11T10:35:29.610Z,36.67
2022-09-11T10:36:32.950Z,36.81
2022-09-11T10:37:35.027Z,37.03
2022-09-11T10:38:59.069Z,37.17
2022-09-11T10:40:19.250Z,37.37
2022-09-11T10:41:25.210Z,37.35
2022-09-11T10:42:29.482Z,37.21
2022-09-11T10:43:52.571Z,37.16
2022-09-11T10:45:11.319Z,37.32
2022-09-11T10:46:19.178Z,37.21
2022-09-11T10:47:25.186Z,36.92
2022-09-11T10:48:27.212Z,37.02
2022-09-11T10:49:34.605Z,36.45
2022-09-11T10:50:36.704Z,36.87
2022-09-11T10:51:45.539Z,36.67
2022-09-11T10:52:58.366Z,36.75
2022-09-11T10:54:09.644Z,36.79
2022-09-11T10:55:15.759Z,36.69
2022-09-11T10:56:17.992Z,36.71
2022-09-11T10:57:30.757Z,36.91
2022-09-11T10:58:38.446Z,36.99
2022-09-11T11:00:21.596Z,37.16
2022-09-11T11:01:23.789Z,37.13
2022-09-11T11:02:36.428Z,37.06
2022-09-11T11:03:41.096Z,36.76
2022-09-11T11:04:43.221Z,37.03
2022-09-11T11:06:04.194Z,37.07
2022-09-11T11:07:40.826Z,37.40
2022-09-11T11:09:14.422Z,37.57
2022-09-11T11:10:24.967Z,37.46
2022-09-11T11:11:56.308Z,37.20
2022-09-11T11:13:28.983Z,37.17
2022-09-11T11:15:04.402Z,37.61
2022-09-11T11:16:18.831Z,37.95
2022-09-11T11:17:33.310Z,37.04
2022-09-11T11:18:44.340Z,36.87
2022-09-11T11:20:09.399Z,37.63
2022-09-11T11:21:19.417Z,37.05
2022-09-11T11:22:28.727Z,37.42
2022-09-11T11:23:51.250Z,37.55
2022-09-11T11:25:12.424Z,37.64
2022-09-11T11:26:36.989Z,37.52
2022-09-11T11:28:16.312Z,37.56
2022-09-11T11:29:18.972Z,37.54
2022-09-11T11:30:38.488Z,37.84
2022-09-11T11:31:49.795Z,37.63
2022-09-11T11:33:09.926Z,37.90
2022-09-11T11:34:27.789Z,37.71
2022-09-11T11:36:02.609Z,37.49
2022-09-11T11:37:20.208Z,37.67
2022-09-11T11:38:35.805Z,37.81
2022-09-11T11:39:52.848Z,37.90
2022-09-11T11:41:03.273Z,37.96
2022-09-11T11:42:30.255Z,37.90
2022-09-11T11:43:34.708Z,37.96
2022-09-11T11:45:00.495Z,37.92
2022-09-11T11:46:15.803Z,38.11
2022-09-11T11:47:26.549Z,38.22
2022-09-11T11:48:51.804Z,38.16
2022-09-11T11:50:18.570Z,38.40
2022-09-11T11:51:27.322Z,38.06
2022-09-11T11:52:32.004Z,38.22
2022-09-11T11:53:48.555Z,38.06
2022-09-11T11:55:20.913Z,38.25
2022-09-11T11:56:47.054Z,38.50
2022-09-11T11:58:10.996Z,38.53
2022-09-11T11:59:25.233Z,38.48
2022-09-11T12:00:29.354Z,38.46
2022-09-11T12:01:48.177Z,38.62
2022-09-11T12:02:51.119Z,38.12
2022-09-11T12:04:14.088Z,38.07
2022-09-11T12:05:20.746Z,37.92
2022-09-11T12:06:22.720Z,38.06
2022-09-11T12:07:28.585Z,38.49
2022-09-11T12:08:30.651Z,38.32
2022-09-11T12:09:35.371Z,37.81
2022-09-11T12:10:40.250Z,38.06
2022-09-11T12:11:45.836Z,38.05
2022-09-11T12:12:53.903Z,38.40
2022-09-11T12:14:02.557Z,38.53
2022-09-11T12:15:10.389Z,38.44
2022-09-11T12:16:28.702Z,38.43
2022-09-11T12:17:33.482Z,38.46
2022-09-11T12:18:35.516Z,38.60
2022-09-11T12:19:37.515Z,38.46
2022-09-11T12:20:45.241Z,38.53
2022-09-11T12:21:53.053Z,38.46
2022-09-11T12:22:55.198Z,38.52
2022-09-11T12:23:57.160Z,38.56
2022-09-11T12:24:59.421Z,38.56
2022-09-11T12:26:16.843Z,38.64
2022-09-11T12:27:34.433Z,38.80
2022-09-11T12:28:38.069Z,38.57
2022-09-11T12:30:09.981Z,38.82
2022-09-11T12:31:14.827Z,39.06
2022-09-11T12:32:16.841Z,38.56
2022-09-11T12:33:47.790Z,38.73
2022-09-11T12:34:50.069Z,38.57
2022-09-11T12:35:53.763Z,39.02
2022-09-11T12:37:01.888Z,38.89
2022-09-11T12:38:06.827Z,38.77
2022-09-11T12:39:34.798Z,38.72
2022-09-11T12:40:49.925Z,38.89
2022-09-11T12:41:54.111Z,38.98
2022-09-11T12:43:00.001Z,39.01
2022-09-11T12:44:04.149Z,38.66
2022-09-11T12:45:30.663Z,39.03
2022-09-11T12:46:33.924Z,39.24
2022-09-11T12:47:42.796Z,39.33
2022-09-11T12:49:00.458Z,38.89
2022-09-11T12:50:11.510Z,39.04
2022-09-11T12:51:26.137Z,38.82
2022-09-11T12:52:40.586Z,38.86
2022-09-11T12:53:47.031Z,39.07
2022-09-11T12:54:51.446Z,39.18
2022-09-11T12:55:58.340Z,39.05
2022-09-11T12:57:36.421Z,39.07
2022-09-11T12:58:45.008Z,39.14
2022-09-11T12:59:54.906Z,38.96
2022-09-11T13:01:25.198Z,39.12
2022-09-11T13:02:42.228Z,38.55
2022-09-11T13:04:12.099Z,38.84
2022-09-11T13:05:27.538Z,38.71
2022-09-11T13:06:58.821Z,38.77
2022-09-11T13:08:18.669Z,39.09
2022-09-11T13:09:22.759Z,38.95
2022-09-11T13:10:40.657Z,38.84
2022-09-11T13:11:55.009Z,38.94
2022-09-11T13:13:37.626Z,38.89
2022-09-11T13:14:48.071Z,38.89
2022-09-11T13:15:52.597Z,39.11
2022-09-11T13:17:05.011Z,39.04
2022-09-11T13:18:31.169Z,39.32
2022-09-11T13:19:36.028Z,39.02
2022-09-11T13:20:38.219Z,39.30
2022-09-11T13:21:42.072Z,39.29
2022-09-11T13:22:47.555Z,39.32
2022-09-11T13:23:51.097Z,39.52
2022-09-11T13:25:07.287Z,39.96
2022-09-11T13:26:18.620Z,39.05
2022-09-11T13:27:28.845Z,39.28
2022-09-11T13:28:39.524Z,39.09
2022-09-11T13:29:43.026Z,38.80
2022-09-11T13:30:57.362Z,39.12
2022-09-11T13:32:05.462Z,38.99
2022-09-11T13:33:11.246Z,39.06
2022-09-11T13:34:18.920Z,38.83
2022-09-11T13:35:27.195Z,38.41
2022-09-11T13:36:34.735Z,38.96
2022-09-11T13:37:58.081Z,39.07
2022-09-11T13:39:03.005Z,39.04
2022-09-11T13:40:08.257Z,38.81
2022-09-11T13:41:20.285Z,39.11
2022-09-11T13:42:26.237Z,39.09
2022-09-11T13:43:50.574Z,39.25
2022-09-11T13:44:58.366Z,38.91
2022-09-11T13:46:16.574Z,39.35
2022-09-11T13:47:21.738Z,39.21
2022-09-11T13:48:24.181Z,38.94
2022-09-11T13:49:39.117Z,39.25
2022-09-11T13:50:41.515Z,39.51
2022-09-11T13:51:46.041Z,39.48
2022-09-11T13:52:49.563Z,39.52
2022-09-11T13:54:15.126Z,39.45
2022-09-11T13:55:23.681Z,39.50
2022-09-11T13:57:04.943Z,39.82
2022-09-11T13:58:24.485Z,39.68
2022-09-11T13:59:48.311Z,39.87
2022-09-11T14:00:52.808Z,40.01
2022-09-11T14:02:00.994Z,40.10
2022-09-11T14:03:03.080Z,40.02
2022-09-11T14:04:11.040Z,40.46
2022-09-11T14:05:28.587Z,40.27
2022-09-11T14:06:31.495Z,40.24
2022-09-11T14:07:41.499Z,40.33
2022-09-11T14:08:50.635Z,40.41
2022-09-11T14:10:01.411Z,40.37
2022-09-11T14:11:13.457Z,40.59
2022-09-11T14:12:15.751Z,40.76
2022-09-11T14:13:20.527Z,40.43
2022-09-11T14:14:28.351Z,40.58
2022-09-11T14:15:40.388Z,40.67
2022-09-11T14:16:52.018Z,40.81
2022-09-11T14:17:54.192Z,40.91
2022-09-11T14:19:02.746Z,41.07
2022-09-11T14:20:20.628Z,40.80
2022-09-11T14:21:26.726Z,41.03
2022-09-11T14:22:34.133Z,40.82
2022-09-11T14:23:43.731Z,40.90
2022-09-11T14:25:22.487Z,41.11
2022-09-11T14:26:39.971Z,41.68
2022-09-11T14:27:43.850Z,41.30
2022-09-11T14:29:00.338Z,41.21
2022-09-11T14:30:23.099Z,41.71
2022-09-11T14:31:39.053Z,41.51
2022-09-11T14:32:41.324Z,41.66
2022-09-11T14:33:43.809Z,41.85
2022-09-11T14:34:45.915Z,41.60
2022-09-11T14:35:50.562Z,42.04
2022-09-11T14:36:54.284Z,42.11
2022-09-11T14:37:58.057Z,42.02
2022-09-11T14:39:00.645Z,42.17
2022-09-11T14:40:08.304Z,42.23
2022-09-11T14:41:10.787Z,41.99
2022-09-11T14:42:26.197Z,42.38
2022-09-11T14:43:33.745Z,42.56
2022-09-11T14:44:39.525Z,42.07
2022-09-11T14:45:41.578Z,42.36
2022-09-11T14:46:44.221Z,42.66
2022-09-11T14:47:46.958Z,42.75
2022-09-11T14:48:49.345Z,42.17
2022-09-11T14:49:56.287Z,42.48
2022-09-11T14:50:58.924Z,42.26
2022-09-11T14:52:01.238Z,42.37
2022-09-11T14:53:03.435Z,42.44